sensor_id;sensor_type;location;lat;lon;timestamp;P1;durP1;ratioP1;P2;durP2;ratioP2
8133;SDS011;7113;53.650;9.916;2022-07-30T00:01:47;2.40;;;2.23;;
8133;SDS011;7113;53.650;9.916;2022-07-30T00:03:50;3.80;;;1.80;;
8133;SDS011;7113;53.650;9.916;2022-07-30T00:05:55;4.87;;;1.50;;
8133;SDS011;7113;53.650;9.916;2022-07-30T00:08:01;3.27;;;1.40;;
8133;SDS011;7113;53.650;9.916;2022-07-30T00:10:05;2.53;;;1.90;;
8133;SDS011;7113;53.650;9.916;2022-07-30T00:12:08;4.07;;;1.73;;
8133;SDS011;7113;53.650;9.916;2022-07-30T00:14:11;2.80;;;1.60;;
8133;SDS011;7113;53.650;9.916;2022-07-30T00:16:14;3.03;;;1.20;;
8133;SDS011;7113;53.650;9.916;2022-07-30T00:18:18;2.10;;;1.90;;
8133;SDS011;7113;53.650;9.916;2022-07-30T00:20:21;1.63;;;1.30;;
8133;SDS011;7113;53.650;9.916;2022-07-30T00:22:24;10.30;;;2.33;;
8133;SDS011;7113;53.650;9.916;2022-07-30T00:24:30;1.67;;;1.57;;
8133;SDS011;7113;53.650;9.916;2022-07-30T00:26:34;1.47;;;1.37;;
8133;SDS011;7113;53.650;9.916;2022-07-30T00:28:37;1.87;;;1.60;;
8133;SDS011;7113;53.650;9.916;2022-07-30T00:30:40;1.70;;;1.60;;
8133;SDS011;7113;53.650;9.916;2022-07-30T00:32:43;1.37;;;1.27;;
8133;SDS011;7113;53.650;9.916;2022-07-30T00:34:46;2.93;;;1.50;;
8133;SDS011;7113;53.650;9.916;2022-07-30T00:36:49;1.87;;;1.60;;
8133;SDS011;7113;53.650;9.916;2022-07-30T00:38:52;5.90;;;2.07;;
8133;SDS011;7113;53.650;9.916;2022-07-30T00:40:58;6.43;;;1.90;;
8133;SDS011;7113;53.650;9.916;2022-07-30T00:43:01;2.20;;;1.53;;
8133;SDS011;7113;53.650;9.916;2022-07-30T00:45:05;5.43;;;1.30;;
8133;SDS011;7113;53.650;9.916;2022-07-30T00:47:08;3.70;;;1.53;;
8133;SDS011;7113;53.650;9.916;2022-07-30T00:49:12;3.90;;;1.97;;
8133;SDS011;7113;53.650;9.916;2022-07-30T00:51:15;4.97;;;1.80;;
8133;SDS011;7113;53.650;9.916;2022-07-30T00:53:18;4.17;;;1.70;;
8133;SDS011;7113;53.650;9.916;2022-07-30T00:55:21;1.87;;;1.77;;
8133;SDS011;7113;53.650;9.916;2022-07-30T00:57:27;4.57;;;2.30;;
8133;SDS011;7113;53.650;9.916;2022-07-30T00:59:30;2.30;;;1.70;;
8133;SDS011;7113;53.650;9.916;2022-07-30T01:01:33;4.57;;;2.20;;
8133;SDS011;7113;53.650;9.916;2022-07-30T01:03:37;5.83;;;2.10;;
8133;SDS011;7113;53.650;9.916;2022-07-30T01:05:40;7.80;;;1.60;;
8133;SDS011;7113;53.650;9.916;2022-07-30T01:07:43;3.00;;;1.80;;
8133;SDS011;7113;53.650;9.916;2022-07-30T01:09:46;3.10;;;1.53;;
8133;SDS011;7113;53.650;9.916;2022-07-30T01:11:49;2.17;;;1.50;;
8133;SDS011;7113;53.650;9.916;2022-07-30T01:13:55;6.10;;;3.00;;
8133;SDS011;7113;53.650;9.916;2022-07-30T01:15:58;3.47;;;1.70;;
8133;SDS011;7113;53.650;9.916;2022-07-30T01:18:02;3.27;;;1.60;;
8133;SDS011;7113;53.650;9.916;2022-07-30T01:20:08;6.67;;;1.93;;
8133;SDS011;7113;53.650;9.916;2022-07-30T01:22:14;1.97;;;1.90;;
8133;SDS011;7113;53.650;9.916;2022-07-30T01:24:21;3.87;;;1.67;;
8133;SDS011;7113;53.650;9.916;2022-07-30T01:26:30;2.80;;;1.77;;
8133;SDS011;7113;53.650;9.916;2022-07-30T01:28:34;10.50;;;2.00;;
8133;SDS011;7113;53.650;9.916;2022-07-30T01:30:38;6.20;;;1.80;;
8133;SDS011;7113;53.650;9.916;2022-07-30T01:32:43;1.93;;;1.83;;
8133;SDS011;7113;53.650;9.916;2022-07-30T01:34:46;1.30;;;1.30;;
8133;SDS011;7113;53.650;9.916;2022-07-30T01:36:51;2.20;;;1.70;;
8133;SDS011;7113;53.650;9.916;2022-07-30T01:38:54;17.40;;;1.73;;
8133;SDS011;7113;53.650;9.916;2022-07-30T01:40:57;3.23;;;1.30;;
8133;SDS011;7113;53.650;9.916;2022-07-30T01:43:03;2.20;;;2.00;;
8133;SDS011;7113;53.650;9.916;2022-07-30T01:45:08;3.70;;;2.50;;
8133;SDS011;7113;53.650;9.916;2022-07-30T01:47:12;1.77;;;1.60;;
8133;SDS011;7113;53.650;9.916;2022-07-30T01:49:15;4.50;;;1.73;;
8133;SDS011;7113;53.650;9.916;2022-07-30T01:51:19;3.60;;;2.30;;
8133;SDS011;7113;53.650;9.916;2022-07-30T01:53:23;2.87;;;1.67;;
8133;SDS011;7113;53.650;9.916;2022-07-30T01:55:28;11.03;;;1.53;;
8133;SDS011;7113;53.650;9.916;2022-07-30T01:57:32;3.60;;;1.80;;
8133;SDS011;7113;53.650;9.916;2022-07-30T01:59:40;1.53;;;1.53;;
8133;SDS011;7113;53.650;9.916;2022-07-30T02:01:45;1.90;;;1.77;;
8133;SDS011;7113;53.650;9.916;2022-07-30T02:03:49;3.40;;;1.70;;
8133;SDS011;7113;53.650;9.916;2022-07-30T02:05:52;3.47;;;1.90;;
8133;SDS011;7113;53.650;9.916;2022-07-30T02:07:58;2.00;;;1.83;;
8133;SDS011;7113;53.650;9.916;2022-07-30T02:10:04;3.43;;;1.97;;
8133;SDS011;7113;53.650;9.916;2022-07-30T02:12:07;3.37;;;1.90;;
8133;SDS011;7113;53.650;9.916;2022-07-30T02:14:25;3.77;;;2.00;;
8133;SDS011;7113;53.650;9.916;2022-07-30T02:16:34;2.77;;;2.33;;
8133;SDS011;7113;53.650;9.916;2022-07-30T02:18:39;1.87;;;1.77;;
8133;SDS011;7113;53.650;9.916;2022-07-30T02:20:47;3.77;;;1.43;;
8133;SDS011;7113;53.650;9.916;2022-07-30T02:22:53;1.87;;;1.63;;
8133;SDS011;7113;53.650;9.916;2022-07-30T02:24:56;6.33;;;2.03;;
8133;SDS011;7113;53.650;9.916;2022-07-30T02:27:03;6.40;;;2.63;;
8133;SDS011;7113;53.650;9.916;2022-07-30T02:29:07;6.43;;;1.97;;
8133;SDS011;7113;53.650;9.916;2022-07-30T02:31:11;9.20;;;2.13;;
8133;SDS011;7113;53.650;9.916;2022-07-30T02:33:21;1.97;;;1.67;;
8133;SDS011;7113;53.650;9.916;2022-07-30T02:35:37;5.93;;;2.07;;
8133;SDS011;7113;53.650;9.916;2022-07-30T02:37:41;2.33;;;2.10;;
8133;SDS011;7113;53.650;9.916;2022-07-30T02:39:45;4.00;;;1.73;;
8133;SDS011;7113;53.650;9.916;2022-07-30T02:41:48;1.60;;;1.50;;
8133;SDS011;7113;53.650;9.916;2022-07-30T02:43:52;7.87;;;3.20;;
8133;SDS011;7113;53.650;9.916;2022-07-30T02:45:56;2.83;;;1.83;;
8133;SDS011;7113;53.650;9.916;2022-07-30T02:48:03;3.47;;;2.00;;
8133;SDS011;7113;53.650;9.916;2022-07-30T02:50:10;1.87;;;1.70;;
8133;SDS011;7113;53.650;9.916;2022-07-30T02:52:14;2.80;;;2.03;;
8133;SDS011;7113;53.650;9.916;2022-07-30T02:54:19;3.60;;;2.17;;
8133;SDS011;7113;53.650;9.916;2022-07-30T02:56:22;2.93;;;1.87;;
8133;SDS011;7113;53.650;9.916;2022-07-30T02:58:26;5.93;;;2.17;;
8133;SDS011;7113;53.650;9.916;2022-07-30T03:00:31;2.83;;;2.17;;
8133;SDS011;7113;53.650;9.916;2022-07-30T03:02:34;2.23;;;1.77;;
8133;SDS011;7113;53.650;9.916;2022-07-30T03:04:38;4.30;;;1.60;;
8133;SDS011;7113;53.650;9.916;2022-07-30T03:06:45;5.97;;;2.27;;
8133;SDS011;7113;53.650;9.916;2022-07-30T03:08:48;3.40;;;2.30;;
8133;SDS011;7113;53.650;9.916;2022-07-30T03:10:52;6.20;;;1.97;;
8133;SDS011;7113;53.650;9.916;2022-07-30T03:12:55;2.30;;;2.10;;
8133;SDS011;7113;53.650;9.916;2022-07-30T03:15:00;2.53;;;2.33;;
8133;SDS011;7113;53.650;9.916;2022-07-30T03:17:03;5.70;;;2.50;;
8133;SDS011;7113;53.650;9.916;2022-07-30T03:19:07;7.53;;;2.73;;
8133;SDS011;7113;53.650;9.916;2022-07-30T03:21:11;4.20;;;2.00;;
8133;SDS011;7113;53.650;9.916;2022-07-30T03:23:17;2.40;;;1.90;;
8133;SDS011;7113;53.650;9.916;2022-07-30T03:25:21;9.40;;;3.67;;
8133;SDS011;7113;53.650;9.916;2022-07-30T03:27:25;3.50;;;3.00;;
8133;SDS011;7113;53.650;9.916;2022-07-30T03:29:28;8.83;;;5.13;;
8133;SDS011;7113;53.650;9.916;2022-07-30T03:31:32;11.40;;;8.13;;
8133;SDS011;7113;53.650;9.916;2022-07-30T03:33:35;13.40;;;6.93;;
8133;SDS011;7113;53.650;9.916;2022-07-30T03:35:38;11.10;;;7.70;;
8133;SDS011;7113;53.650;9.916;2022-07-30T03:37:43;8.47;;;5.27;;
8133;SDS011;7113;53.650;9.916;2022-07-30T03:39:49;18.10;;;7.80;;
8133;SDS011;7113;53.650;9.916;2022-07-30T03:41:52;17.63;;;8.83;;
8133;SDS011;7113;53.650;9.916;2022-07-30T03:43:56;25.20;;;8.63;;
8133;SDS011;7113;53.650;9.916;2022-07-30T03:46:00;14.40;;;8.50;;
8133;SDS011;7113;53.650;9.916;2022-07-30T03:48:05;15.20;;;7.87;;
8133;SDS011;7113;53.650;9.916;2022-07-30T03:50:09;10.90;;;6.50;;
8133;SDS011;7113;53.650;9.916;2022-07-30T03:52:14;21.43;;;7.43;;
8133;SDS011;7113;53.650;9.916;2022-07-30T03:54:18;16.80;;;8.60;;
8133;SDS011;7113;53.650;9.916;2022-07-30T03:56:24;16.47;;;6.93;;
8133;SDS011;7113;53.650;9.916;2022-07-30T03:58:27;23.03;;;6.80;;
8133;SDS011;7113;53.650;9.916;2022-07-30T04:00:30;7.03;;;5.60;;
8133;SDS011;7113;53.650;9.916;2022-07-30T04:02:39;11.93;;;3.53;;
8133;SDS011;7113;53.650;9.916;2022-07-30T04:04:42;13.33;;;4.80;;
8133;SDS011;7113;53.650;9.916;2022-07-30T04:06:45;7.70;;;4.67;;
8133;SDS011;7113;53.650;9.916;2022-07-30T04:08:48;4.93;;;3.40;;
8133;SDS011;7113;53.650;9.916;2022-07-30T04:10:51;4.60;;;3.03;;
8133;SDS011;7113;53.650;9.916;2022-07-30T04:12:57;7.90;;;3.53;;
8133;SDS011;7113;53.650;9.916;2022-07-30T04:15:00;5.53;;;2.93;;
8133;SDS011;7113;53.650;9.916;2022-07-30T04:17:04;7.90;;;3.70;;
8133;SDS011;7113;53.650;9.916;2022-07-30T04:19:11;5.73;;;3.40;;
8133;SDS011;7113;53.650;9.916;2022-07-30T04:21:16;3.10;;;2.80;;
8133;SDS011;7113;53.650;9.916;2022-07-30T04:23:20;2.97;;;2.63;;
8133;SDS011;7113;53.650;9.916;2022-07-30T04:25:23;6.80;;;3.33;;
8133;SDS011;7113;53.650;9.916;2022-07-30T04:27:27;2.57;;;2.37;;
8133;SDS011;7113;53.650;9.916;2022-07-30T04:29:33;4.07;;;2.70;;
8133;SDS011;7113;53.650;9.916;2022-07-30T04:31:36;2.53;;;1.50;;
8133;SDS011;7113;53.650;9.916;2022-07-30T04:33:41;3.17;;;2.10;;
8133;SDS011;7113;53.650;9.916;2022-07-30T04:35:46;2.40;;;2.30;;
8133;SDS011;7113;53.650;9.916;2022-07-30T04:37:49;3.70;;;2.40;;
8133;SDS011;7113;53.650;9.916;2022-07-30T04:39:53;7.10;;;2.37;;
8133;SDS011;7113;53.650;9.916;2022-07-30T04:41:56;2.50;;;2.30;;
8133;SDS011;7113;53.650;9.916;2022-07-30T04:43:59;6.53;;;1.73;;
8133;SDS011;7113;53.650;9.916;2022-07-30T04:46:05;10.00;;;1.77;;
8133;SDS011;7113;53.650;9.916;2022-07-30T04:48:08;2.27;;;2.10;;
8133;SDS011;7113;53.650;9.916;2022-07-30T04:50:11;21.43;;;2.63;;
8133;SDS011;7113;53.650;9.916;2022-07-30T04:52:15;5.40;;;1.67;;
8133;SDS011;7113;53.650;9.916;2022-07-30T04:54:19;1.73;;;1.67;;
8133;SDS011;7113;53.650;9.916;2022-07-30T04:56:23;4.90;;;1.70;;
8133;SDS011;7113;53.650;9.916;2022-07-30T04:58:27;5.13;;;1.73;;
8133;SDS011;7113;53.650;9.916;2022-07-30T05:00:32;4.10;;;2.10;;
8133;SDS011;7113;53.650;9.916;2022-07-30T05:03:00;1.20;;;1.20;;
8133;SDS011;7113;53.650;9.916;2022-07-30T05:05:04;2.20;;;1.37;;
8133;SDS011;7113;53.650;9.916;2022-07-30T05:07:08;4.77;;;1.70;;
8133;SDS011;7113;53.650;9.916;2022-07-30T05:09:14;1.63;;;1.53;;
8133;SDS011;7113;53.650;9.916;2022-07-30T05:11:17;2.10;;;1.30;;
8133;SDS011;7113;53.650;9.916;2022-07-30T05:13:20;2.83;;;1.53;;
8133;SDS011;7113;53.650;9.916;2022-07-30T05:15:23;1.23;;;1.13;;
8133;SDS011;7113;53.650;9.916;2022-07-30T05:17:26;12.23;;;1.60;;
8133;SDS011;7113;53.650;9.916;2022-07-30T05:19:32;2.07;;;0.97;;
8133;SDS011;7113;53.650;9.916;2022-07-30T05:21:35;1.67;;;1.57;;
8133;SDS011;7113;53.650;9.916;2022-07-30T05:23:38;3.90;;;2.00;;
8133;SDS011;7113;53.650;9.916;2022-07-30T05:25:42;2.30;;;1.63;;
8133;SDS011;7113;53.650;9.916;2022-07-30T05:27:45;1.47;;;1.33;;
8133;SDS011;7113;53.650;9.916;2022-07-30T05:29:49;15.10;;;2.00;;
8133;SDS011;7113;53.650;9.916;2022-07-30T05:31:53;5.57;;;1.70;;
8133;SDS011;7113;53.650;9.916;2022-07-30T05:33:56;1.60;;;1.50;;
8133;SDS011;7113;53.650;9.916;2022-07-30T05:36:02;3.03;;;1.60;;
8133;SDS011;7113;53.650;9.916;2022-07-30T05:38:05;1.83;;;1.73;;
8133;SDS011;7113;53.650;9.916;2022-07-30T17:56:33;2.13;;;2.00;;
8133;SDS011;7113;53.650;9.916;2022-07-30T17:58:36;3.70;;;2.33;;
8133;SDS011;7113;53.650;9.916;2022-07-30T18:00:39;4.63;;;2.03;;
8133;SDS011;7113;53.650;9.916;2022-07-30T18:02:42;1.73;;;1.63;;
8133;SDS011;7113;53.650;9.916;2022-07-30T18:04:45;3.57;;;2.27;;
8133;SDS011;7113;53.650;9.916;2022-07-30T18:06:48;3.17;;;1.93;;
8133;SDS011;7113;53.650;9.916;2022-07-30T18:08:52;4.73;;;1.80;;
8133;SDS011;7113;53.650;9.916;2022-07-30T18:10:55;4.40;;;1.90;;
8133;SDS011;7113;53.650;9.916;2022-07-30T18:13:00;1.77;;;1.67;;
8133;SDS011;7113;53.650;9.916;2022-07-30T18:15:04;1.67;;;1.57;;
8133;SDS011;7113;53.650;9.916;2022-07-30T18:17:08;4.13;;;1.87;;
8133;SDS011;7113;53.650;9.916;2022-07-30T18:19:11;2.20;;;1.40;;
8133;SDS011;7113;53.650;9.916;2022-07-30T18:21:14;4.10;;;2.23;;
8133;SDS011;7113;53.650;9.916;2022-07-30T18:23:17;2.07;;;1.97;;
8133;SDS011;7113;53.650;9.916;2022-07-30T18:25:20;1.80;;;1.70;;
8133;SDS011;7113;53.650;9.916;2022-07-30T18:27:23;8.33;;;1.97;;
8133;SDS011;7113;53.650;9.916;2022-07-30T18:29:29;4.40;;;1.73;;
8133;SDS011;7113;53.650;9.916;2022-07-30T18:31:32;8.00;;;2.20;;
8133;SDS011;7113;53.650;9.916;2022-07-30T18:33:35;6.70;;;2.00;;
8133;SDS011;7113;53.650;9.916;2022-07-30T18:35:38;1.90;;;1.40;;
8133;SDS011;7113;53.650;9.916;2022-07-30T18:37:42;2.03;;;1.93;;
8133;SDS011;7113;53.650;9.916;2022-07-30T18:39:45;1.80;;;1.57;;
8133;SDS011;7113;53.650;9.916;2022-07-30T18:41:51;1.57;;;1.47;;
8133;SDS011;7113;53.650;9.916;2022-07-30T18:43:54;1.90;;;1.73;;
8133;SDS011;7113;53.650;9.916;2022-07-30T18:46:00;1.60;;;1.50;;
8133;SDS011;7113;53.650;9.916;2022-07-30T18:48:05;1.80;;;1.70;;
8133;SDS011;7113;53.650;9.916;2022-07-30T18:50:08;4.43;;;2.03;;
8133;SDS011;7113;53.650;9.916;2022-07-30T18:52:12;6.30;;;1.70;;
8133;SDS011;7113;53.650;9.916;2022-07-30T18:54:15;7.17;;;2.57;;
8133;SDS011;7113;53.650;9.916;2022-07-30T18:56:18;5.70;;;2.10;;
8133;SDS011;7113;53.650;9.916;2022-07-30T18:58:21;2.07;;;1.97;;
8133;SDS011;7113;53.650;9.916;2022-07-30T19:00:25;15.80;;;2.17;;
8133;SDS011;7113;53.650;9.916;2022-07-30T19:02:31;2.07;;;1.43;;
8133;SDS011;7113;53.650;9.916;2022-07-30T19:04:34;2.93;;;1.87;;
8133;SDS011;7113;53.650;9.916;2022-07-30T19:06:37;3.67;;;1.60;;
8133;SDS011;7113;53.650;9.916;2022-07-30T19:08:40;1.93;;;1.83;;
8133;SDS011;7113;53.650;9.916;2022-07-30T19:10:43;2.30;;;1.23;;
8133;SDS011;7113;53.650;9.916;2022-07-30T19:12:46;6.63;;;1.77;;
8133;SDS011;7113;53.650;9.916;2022-07-30T19:14:50;18.27;;;3.00;;
8133;SDS011;7113;53.650;9.916;2022-07-30T19:16:53;2.70;;;1.60;;
8133;SDS011;7113;53.650;9.916;2022-07-30T19:18:59;2.77;;;1.93;;
8133;SDS011;7113;53.650;9.916;2022-07-30T19:21:02;4.83;;;2.43;;
8133;SDS011;7113;53.650;9.916;2022-07-30T19:23:05;2.03;;;1.57;;
8133;SDS011;7113;53.650;9.916;2022-07-30T19:25:09;3.67;;;1.70;;
8133;SDS011;7113;53.650;9.916;2022-07-30T19:27:12;2.87;;;2.20;;
8133;SDS011;7113;53.650;9.916;2022-07-30T19:29:15;3.80;;;1.93;;
8133;SDS011;7113;53.650;9.916;2022-07-30T19:31:18;11.23;;;2.40;;
8133;SDS011;7113;53.650;9.916;2022-07-30T19:33:22;5.43;;;1.60;;
8133;SDS011;7113;53.650;9.916;2022-07-30T19:35:27;3.63;;;1.50;;
8133;SDS011;7113;53.650;9.916;2022-07-30T19:37:30;2.13;;;1.83;;
8133;SDS011;7113;53.650;9.916;2022-07-30T19:39:36;14.40;;;2.30;;
8133;SDS011;7113;53.650;9.916;2022-07-30T19:41:39;8.13;;;1.67;;
8133;SDS011;7113;53.650;9.916;2022-07-30T19:43:42;2.73;;;1.87;;
8133;SDS011;7113;53.650;9.916;2022-07-30T19:45:45;5.73;;;2.00;;
8133;SDS011;7113;53.650;9.916;2022-07-30T19:47:48;1.77;;;1.63;;
8133;SDS011;7113;53.650;9.916;2022-07-30T19:49:51;4.43;;;1.93;;
8133;SDS011;7113;53.650;9.916;2022-07-30T19:51:57;6.50;;;2.30;;
8133;SDS011;7113;53.650;9.916;2022-07-30T19:54:00;7.13;;;2.57;;
8133;SDS011;7113;53.650;9.916;2022-07-30T19:56:04;2.20;;;2.10;;
8133;SDS011;7113;53.650;9.916;2022-07-30T19:58:09;5.57;;;2.90;;
8133;SDS011;7113;53.650;9.916;2022-07-30T20:00:16;10.60;;;3.10;;
8133;SDS011;7113;53.650;9.916;2022-07-30T20:02:19;3.43;;;3.13;;
8133;SDS011;7113;53.650;9.916;2022-07-30T20:04:23;3.10;;;2.80;;
8133;SDS011;7113;53.650;9.916;2022-07-30T20:06:26;8.53;;;3.80;;
8133;SDS011;7113;53.650;9.916;2022-07-30T20:08:32;3.10;;;2.63;;
8133;SDS011;7113;53.650;9.916;2022-07-30T20:10:35;3.07;;;2.87;;
8133;SDS011;7113;53.650;9.916;2022-07-30T20:12:38;10.00;;;4.10;;
8133;SDS011;7113;53.650;9.916;2022-07-30T20:14:41;6.73;;;3.40;;
8133;SDS011;7113;53.650;9.916;2022-07-30T20:16:45;8.77;;;3.40;;
8133;SDS011;7113;53.650;9.916;2022-07-30T20:18:48;9.07;;;4.47;;
8133;SDS011;7113;53.650;9.916;2022-07-30T20:20:51;4.60;;;3.20;;
8133;SDS011;7113;53.650;9.916;2022-07-30T20:22:54;18.73;;;4.40;;
8133;SDS011;7113;53.650;9.916;2022-07-30T20:25:00;4.70;;;3.13;;
8133;SDS011;7113;53.650;9.916;2022-07-30T20:27:03;8.63;;;2.97;;
8133;SDS011;7113;53.650;9.916;2022-07-30T20:29:06;3.17;;;2.67;;
8133;SDS011;7113;53.650;9.916;2022-07-30T20:31:10;5.97;;;2.97;;
8133;SDS011;7113;53.650;9.916;2022-07-30T20:33:13;6.10;;;3.20;;
8133;SDS011;7113;53.650;9.916;2022-07-30T20:35:16;7.43;;;3.00;;
8133;SDS011;7113;53.650;9.916;2022-07-30T20:37:20;4.17;;;3.30;;
8133;SDS011;7113;53.650;9.916;2022-07-30T20:39:23;4.23;;;3.70;;
8133;SDS011;7113;53.650;9.916;2022-07-30T20:41:29;10.00;;;4.50;;
8133;SDS011;7113;53.650;9.916;2022-07-30T20:43:32;8.07;;;4.57;;
8133;SDS011;7113;53.650;9.916;2022-07-30T20:45:35;3.80;;;3.50;;
8133;SDS011;7113;53.650;9.916;2022-07-30T20:47:40;6.60;;;4.93;;
8133;SDS011;7113;53.650;9.916;2022-07-30T20:49:43;8.47;;;5.80;;
8133;SDS011;7113;53.650;9.916;2022-07-30T20:51:47;11.63;;;4.77;;
8133;SDS011;7113;53.650;9.916;2022-07-30T20:53:50;17.80;;;5.53;;
8133;SDS011;7113;53.650;9.916;2022-07-30T20:55:53;18.30;;;6.50;;
8133;SDS011;7113;53.650;9.916;2022-07-30T20:57:59;11.53;;;6.60;;
8133;SDS011;7113;53.650;9.916;2022-07-30T21:00:05;15.17;;;8.13;;
8133;SDS011;7113;53.650;9.916;2022-07-30T21:02:08;13.43;;;8.77;;
8133;SDS011;7113;53.650;9.916;2022-07-30T21:04:12;11.93;;;7.03;;
8133;SDS011;7113;53.650;9.916;2022-07-30T21:06:15;8.93;;;6.97;;
8133;SDS011;7113;53.650;9.916;2022-07-30T21:08:18;11.87;;;8.10;;
8133;SDS011;7113;53.650;9.916;2022-07-30T21:10:23;14.57;;;9.03;;
8133;SDS011;7113;53.650;9.916;2022-07-30T21:12:26;23.57;;;12.80;;
8133;SDS011;7113;53.650;9.916;2022-07-30T21:14:32;17.13;;;9.73;;
8133;SDS011;7113;53.650;9.916;2022-07-30T21:16:35;22.50;;;11.70;;
8133;SDS011;7113;53.650;9.916;2022-07-30T21:18:38;30.73;;;14.13;;
8133;SDS011;7113;53.650;9.916;2022-07-30T21:20:41;16.83;;;11.70;;
8133;SDS011;7113;53.650;9.916;2022-07-30T21:22:44;17.90;;;11.70;;
8133;SDS011;7113;53.650;9.916;2022-07-30T21:24:47;25.93;;;12.40;;
8133;SDS011;7113;53.650;9.916;2022-07-30T21:26:51;27.60;;;13.70;;
8133;SDS011;7113;53.650;9.916;2022-07-30T21:28:54;24.67;;;13.27;;
8133;SDS011;7113;53.650;9.916;2022-07-30T21:31:02;24.93;;;15.20;;
8133;SDS011;7113;53.650;9.916;2022-07-30T21:33:05;41.43;;;18.37;;
8133;SDS011;7113;53.650;9.916;2022-07-30T21:35:08;23.53;;;16.70;;
8133;SDS011;7113;53.650;9.916;2022-07-30T21:37:11;54.47;;;20.47;;
8133;SDS011;7113;53.650;9.916;2022-07-30T21:39:15;37.97;;;17.70;;
8133;SDS011;7113;53.650;9.916;2022-07-30T21:41:18;38.57;;;18.47;;
8133;SDS011;7113;53.650;9.916;2022-07-30T21:43:21;37.20;;;19.10;;
8133;SDS011;7113;53.650;9.916;2022-07-30T21:45:24;28.70;;;18.77;;
8133;SDS011;7113;53.650;9.916;2022-07-30T21:47:30;32.13;;;17.77;;
8133;SDS011;7113;53.650;9.916;2022-07-30T21:49:33;28.33;;;17.20;;
8133;SDS011;7113;53.650;9.916;2022-07-30T21:51:36;31.93;;;18.50;;
8133;SDS011;7113;53.650;9.916;2022-07-30T21:53:39;44.17;;;18.83;;
8133;SDS011;7113;53.650;9.916;2022-07-30T21:55:42;31.13;;;17.33;;
8133;SDS011;7113;53.650;9.916;2022-07-30T21:57:45;46.77;;;19.40;;
8133;SDS011;7113;53.650;9.916;2022-07-30T21:59:48;36.27;;;18.57;;
8133;SDS011;7113;53.650;9.916;2022-07-30T22:01:52;41.57;;;17.40;;
8133;SDS011;7113;53.650;9.916;2022-07-30T22:03:57;32.80;;;16.00;;
8133;SDS011;7113;53.650;9.916;2022-07-30T22:06:05;29.77;;;16.30;;
8133;SDS011;7113;53.650;9.916;2022-07-30T22:08:08;24.87;;;14.77;;
8133;SDS011;7113;53.650;9.916;2022-07-30T22:10:12;28.27;;;14.90;;
8133;SDS011;7113;53.650;9.916;2022-07-30T22:12:15;33.13;;;15.27;;
8133;SDS011;7113;53.650;9.916;2022-07-30T22:14:18;22.93;;;14.97;;
8133;SDS011;7113;53.650;9.916;2022-07-30T22:16:21;24.33;;;15.20;;
8133;SDS011;7113;53.650;9.916;2022-07-30T22:18:24;24.30;;;14.60;;
8133;SDS011;7113;53.650;9.916;2022-07-30T22:20:30;36.67;;;15.50;;
8133;SDS011;7113;53.650;9.916;2022-07-30T22:22:33;22.57;;;14.57;;
8133;SDS011;7113;53.650;9.916;2022-07-30T22:24:38;18.90;;;12.10;;
8133;SDS011;7113;53.650;9.916;2022-07-30T22:26:41;38.43;;;13.93;;
8133;SDS011;7113;53.650;9.916;2022-07-30T22:28:44;27.57;;;12.37;;
8133;SDS011;7113;53.650;9.916;2022-07-30T22:30:47;19.00;;;12.43;;
8133;SDS011;7113;53.650;9.916;2022-07-30T22:32:50;24.93;;;11.87;;
8133;SDS011;7113;53.650;9.916;2022-07-30T22:34:53;24.40;;;12.03;;
8133;SDS011;7113;53.650;9.916;2022-07-30T22:36:59;18.20;;;10.50;;
8133;SDS011;7113;53.650;9.916;2022-07-30T22:39:02;15.47;;;10.73;;
8133;SDS011;7113;53.650;9.916;2022-07-30T22:41:05;15.93;;;10.33;;
8133;SDS011;7113;53.650;9.916;2022-07-30T22:43:11;13.80;;;9.30;;
8133;SDS011;7113;53.650;9.916;2022-07-30T22:45:14;26.63;;;12.30;;
8133;SDS011;7113;53.650;9.916;2022-07-30T22:47:17;17.97;;;10.20;;
8133;SDS011;7113;53.650;9.916;2022-07-30T22:49:20;26.47;;;11.40;;
8133;SDS011;7113;53.650;9.916;2022-07-30T22:51:24;14.70;;;10.10;;
8133;SDS011;7113;53.650;9.916;2022-07-30T22:53:30;17.50;;;10.20;;
8133;SDS011;7113;53.650;9.916;2022-07-30T22:55:35;19.83;;;10.63;;
8133;SDS011;7113;53.650;9.916;2022-07-30T22:57:39;32.97;;;10.87;;
8133;SDS011;7113;53.650;9.916;2022-07-30T22:59:42;29.33;;;10.00;;
8133;SDS011;7113;53.650;9.916;2022-07-30T23:01:45;27.73;;;11.60;;
8133;SDS011;7113;53.650;9.916;2022-07-30T23:03:48;21.27;;;11.27;;
8133;SDS011;7113;53.650;9.916;2022-07-30T23:05:51;22.57;;;11.63;;
8133;SDS011;7113;53.650;9.916;2022-07-30T23:07:54;15.60;;;10.43;;
8133;SDS011;7113;53.650;9.916;2022-07-30T23:10:00;28.37;;;10.10;;
8133;SDS011;7113;53.650;9.916;2022-07-30T23:12:03;17.70;;;11.50;;
8133;SDS011;7113;53.650;9.916;2022-07-30T23:14:07;21.07;;;11.70;;
8133;SDS011;7113;53.650;9.916;2022-07-30T23:16:10;25.80;;;11.67;;
8133;SDS011;7113;53.650;9.916;2022-07-30T23:18:13;22.67;;;11.73;;
8133;SDS011;7113;53.650;9.916;2022-07-30T23:20:18;31.53;;;11.10;;
8133;SDS011;7113;53.650;9.916;2022-07-30T23:22:22;18.27;;;11.27;;
8133;SDS011;7113;53.650;9.916;2022-07-30T23:24:25;19.93;;;11.50;;
8133;SDS011;7113;53.650;9.916;2022-07-30T23:26:30;23.53;;;12.47;;
8133;SDS011;7113;53.650;9.916;2022-07-30T23:28:34;22.90;;;10.87;;
8133;SDS011;7113;53.650;9.916;2022-07-30T23:30:37;23.97;;;12.10;;
8133;SDS011;7113;53.650;9.916;2022-07-30T23:32:40;23.73;;;11.50;;
8133;SDS011;7113;53.650;9.916;2022-07-30T23:34:43;26.90;;;13.17;;
8133;SDS011;7113;53.650;9.916;2022-07-30T23:36:46;21.23;;;13.90;;
8133;SDS011;7113;53.650;9.916;2022-07-30T23:38:49;25.37;;;13.20;;
8133;SDS011;7113;53.650;9.916;2022-07-30T23:40:54;15.60;;;11.57;;
8133;SDS011;7113;53.650;9.916;2022-07-30T23:43:02;26.37;;;13.00;;
8133;SDS011;7113;53.650;9.916;2022-07-30T23:45:06;17.37;;;12.27;;
8133;SDS011;7113;53.650;9.916;2022-07-30T23:47:09;21.37;;;12.40;;
8133;SDS011;7113;53.650;9.916;2022-07-30T23:49:12;28.10;;;12.60;;
8133;SDS011;7113;53.650;9.916;2022-07-30T23:51:15;20.47;;;12.20;;
8133;SDS011;7113;53.650;9.916;2022-07-30T23:53:18;19.87;;;12.70;;
8133;SDS011;7113;53.650;9.916;2022-07-30T23:55:23;20.47;;;13.27;;
8133;SDS011;7113;53.650;9.916;2022-07-30T23:57:26;24.57;;;12.27;;
8133;SDS011;7113;53.650;9.916;2022-07-30T23:59:32;22.90;;;11.70;;
